sensor_id;sensor_type;location;lat;lon;timestamp;P1;durP1;ratioP1;P2;durP2;ratioP2
55465;SDS011;41329;41.594;23.810;2023-04-27T00:01:11;2.97;;;2.77;;
55465;SDS011;41329;41.594;23.810;2023-04-27T00:03:37;3.20;;;3.00;;
55465;SDS011;41329;41.594;23.810;2023-04-27T00:06:03;4.13;;;3.73;;
55465;SDS011;41329;41.594;23.810;2023-04-27T00:08:29;3.40;;;3.20;;
55465;SDS011;41329;41.594;23.810;2023-04-27T00:10:57;2.90;;;2.70;;
55465;SDS011;41329;41.594;23.810;2023-04-27T00:13:23;4.33;;;2.60;;
55465;SDS011;41329;41.594;23.810;2023-04-27T00:15:48;2.97;;;2.77;;
55465;SDS011;41329;41.594;23.810;2023-04-27T00:18:13;3.40;;;3.20;;
55465;SDS011;41329;41.594;23.810;2023-04-27T00:20:39;3.80;;;3.60;;
55465;SDS011;41329;41.594;23.810;2023-04-27T00:23:05;3.67;;;3.37;;
55465;SDS011;41329;41.594;23.810;2023-04-27T00:25:30;2.70;;;2.60;;
55465;SDS011;41329;41.594;23.810;2023-04-27T00:27:56;3.27;;;3.00;;
55465;SDS011;41329;41.594;23.810;2023-04-27T00:30:21;3.47;;;3.27;;
55465;SDS011;41329;41.594;23.810;2023-04-27T00:32:47;4.13;;;3.93;;
55465;SDS011;41329;41.594;23.810;2023-04-27T00:35:12;3.60;;;3.40;;
55465;SDS011;41329;41.594;23.810;2023-04-27T00:37:37;2.60;;;2.40;;
55465;SDS011;41329;41.594;23.810;2023-04-27T00:40:03;3.47;;;3.27;;
55465;SDS011;41329;41.594;23.810;2023-04-27T00:42:32;3.97;;;3.67;;
55465;SDS011;41329;41.594;23.810;2023-04-27T00:44:59;3.40;;;3.03;;
55465;SDS011;41329;41.594;23.810;2023-04-27T00:47:24;3.70;;;3.50;;
55465;SDS011;41329;41.594;23.810;2023-04-27T00:49:50;3.20;;;3.00;;
55465;SDS011;41329;41.594;23.810;2023-04-27T00:52:16;3.13;;;2.93;;
55465;SDS011;41329;41.594;23.810;2023-04-27T00:54:42;3.97;;;3.47;;
55465;SDS011;41329;41.594;23.810;2023-04-27T00:57:08;3.27;;;3.07;;
55465;SDS011;41329;41.594;23.810;2023-04-27T00:59:33;3.90;;;2.90;;
55465;SDS011;41329;41.594;23.810;2023-04-27T01:01:59;3.93;;;2.47;;
55465;SDS011;41329;41.594;23.810;2023-04-27T01:04:25;3.30;;;3.10;;
55465;SDS011;41329;41.594;23.810;2023-04-27T01:06:52;4.60;;;3.77;;
55465;SDS011;41329;41.594;23.810;2023-04-27T01:09:18;3.43;;;3.23;;
55465;SDS011;41329;41.594;23.810;2023-04-27T01:11:44;2.87;;;2.67;;
55465;SDS011;41329;41.594;23.810;2023-04-27T01:14:10;2.70;;;2.53;;
55465;SDS011;41329;41.594;23.810;2023-04-27T01:16:36;2.67;;;2.53;;
55465;SDS011;41329;41.594;23.810;2023-04-27T01:19:02;3.70;;;3.40;;
55465;SDS011;41329;41.594;23.810;2023-04-27T01:21:28;3.23;;;3.00;;
55465;SDS011;41329;41.594;23.810;2023-04-27T01:23:54;3.70;;;3.47;;
55465;SDS011;41329;41.594;23.810;2023-04-27T01:26:19;2.97;;;2.77;;
55465;SDS011;41329;41.594;23.810;2023-04-27T01:28:45;2.40;;;2.30;;
55465;SDS011;41329;41.594;23.810;2023-04-27T01:31:11;2.50;;;2.30;;
55465;SDS011;41329;41.594;23.810;2023-04-27T01:33:37;2.70;;;2.10;;
55465;SDS011;41329;41.594;23.810;2023-04-27T01:36:03;2.50;;;2.40;;
55465;SDS011;41329;41.594;23.810;2023-04-27T01:38:29;2.40;;;2.30;;
55465;SDS011;41329;41.594;23.810;2023-04-27T01:40:56;2.47;;;2.37;;
55465;SDS011;41329;41.594;23.810;2023-04-27T01:43:27;2.53;;;2.33;;
55465;SDS011;41329;41.594;23.810;2023-04-27T01:46:03;2.60;;;2.50;;
55465;SDS011;41329;41.594;23.810;2023-04-27T01:48:33;2.73;;;2.33;;
55465;SDS011;41329;41.594;23.810;2023-04-27T01:50:59;3.13;;;2.93;;
55465;SDS011;41329;41.594;23.810;2023-04-27T01:53:24;2.70;;;2.50;;
55465;SDS011;41329;41.594;23.810;2023-04-27T01:55:50;2.97;;;2.67;;
55465;SDS011;41329;41.594;23.810;2023-04-27T01:58:15;3.47;;;3.23;;
55465;SDS011;41329;41.594;23.810;2023-04-27T02:00:41;3.23;;;3.03;;
55465;SDS011;41329;41.594;23.810;2023-04-27T02:03:06;3.60;;;3.40;;
55465;SDS011;41329;41.594;23.810;2023-04-27T02:05:31;3.43;;;3.13;;
55465;SDS011;41329;41.594;23.810;2023-04-27T02:07:57;3.30;;;3.10;;
55465;SDS011;41329;41.594;23.810;2023-04-27T02:10:22;2.70;;;2.50;;
55465;SDS011;41329;41.594;23.810;2023-04-27T02:12:48;2.97;;;2.77;;
55465;SDS011;41329;41.594;23.810;2023-04-27T02:15:13;3.30;;;2.53;;
55465;SDS011;41329;41.594;23.810;2023-04-27T02:17:39;2.43;;;2.23;;
55465;SDS011;41329;41.594;23.810;2023-04-27T02:20:05;2.33;;;1.90;;
55465;SDS011;41329;41.594;23.810;2023-04-27T02:22:31;1.83;;;1.60;;
55465;SDS011;41329;41.594;23.810;2023-04-27T02:24:58;2.17;;;2.00;;
55465;SDS011;41329;41.594;23.810;2023-04-27T02:27:24;2.07;;;1.97;;
55465;SDS011;41329;41.594;23.810;2023-04-27T02:29:49;3.13;;;2.90;;
55465;SDS011;41329;41.594;23.810;2023-04-27T02:32:14;2.97;;;2.57;;
55465;SDS011;41329;41.594;23.810;2023-04-27T02:34:40;2.40;;;2.20;;
55465;SDS011;41329;41.594;23.810;2023-04-27T02:37:05;2.60;;;2.50;;
55465;SDS011;41329;41.594;23.810;2023-04-27T02:39:31;2.10;;;1.90;;
55465;SDS011;41329;41.594;23.810;2023-04-27T02:41:56;2.10;;;2.00;;
55465;SDS011;41329;41.594;23.810;2023-04-27T02:44:22;3.23;;;2.97;;
55465;SDS011;41329;41.594;23.810;2023-04-27T02:46:47;2.33;;;2.13;;
55465;SDS011;41329;41.594;23.810;2023-04-27T02:49:14;2.43;;;2.23;;
55465;SDS011;41329;41.594;23.810;2023-04-27T02:51:40;1.87;;;1.77;;
55465;SDS011;41329;41.594;23.810;2023-04-27T02:54:05;2.47;;;2.20;;
55465;SDS011;41329;41.594;23.810;2023-04-27T02:56:31;2.23;;;1.93;;
55465;SDS011;41329;41.594;23.810;2023-04-27T02:58:56;3.60;;;2.60;;
55465;SDS011;41329;41.594;23.810;2023-04-27T03:01:22;2.13;;;2.00;;
55465;SDS011;41329;41.594;23.810;2023-04-27T03:03:47;2.60;;;2.40;;
55465;SDS011;41329;41.594;23.810;2023-04-27T03:06:13;2.50;;;2.40;;
55465;SDS011;41329;41.594;23.810;2023-04-27T03:08:38;2.37;;;2.07;;
55465;SDS011;41329;41.594;23.810;2023-04-27T03:11:04;4.97;;;4.77;;
55465;SDS011;41329;41.594;23.810;2023-04-27T03:13:30;3.30;;;3.10;;
55465;SDS011;41329;41.594;23.810;2023-04-27T03:16:02;3.13;;;2.93;;
55465;SDS011;41329;41.594;23.810;2023-04-27T03:18:27;2.67;;;2.47;;
55465;SDS011;41329;41.594;23.810;2023-04-27T03:20:53;2.70;;;2.50;;
55465;SDS011;41329;41.594;23.810;2023-04-27T03:23:18;2.27;;;2.13;;
55465;SDS011;41329;41.594;23.810;2023-04-27T03:25:44;2.50;;;2.40;;
55465;SDS011;41329;41.594;23.810;2023-04-27T03:28:09;3.00;;;2.73;;
55465;SDS011;41329;41.594;23.810;2023-04-27T03:30:37;2.73;;;2.53;;
55465;SDS011;41329;41.594;23.810;2023-04-27T03:33:04;2.70;;;2.50;;
55465;SDS011;41329;41.594;23.810;2023-04-27T03:35:29;3.07;;;2.40;;
55465;SDS011;41329;41.594;23.810;2023-04-27T03:37:55;2.70;;;2.57;;
55465;SDS011;41329;41.594;23.810;2023-04-27T03:40:20;3.70;;;2.33;;
55465;SDS011;41329;41.594;23.810;2023-04-27T03:42:46;2.73;;;2.53;;
55465;SDS011;41329;41.594;23.810;2023-04-27T03:45:11;3.30;;;3.10;;
55465;SDS011;41329;41.594;23.810;2023-04-27T03:47:37;2.73;;;2.53;;
55465;SDS011;41329;41.594;23.810;2023-04-27T03:50:02;2.53;;;2.43;;
55465;SDS011;41329;41.594;23.810;2023-04-27T03:52:28;2.43;;;2.23;;
55465;SDS011;41329;41.594;23.810;2023-04-27T03:54:54;3.17;;;2.97;;
55465;SDS011;41329;41.594;23.810;2023-04-27T03:57:19;3.20;;;3.00;;
55465;SDS011;41329;41.594;23.810;2023-04-27T03:59:45;3.60;;;3.40;;
55465;SDS011;41329;41.594;23.810;2023-04-27T04:02:10;3.03;;;2.83;;
55465;SDS011;41329;41.594;23.810;2023-04-27T04:04:36;2.63;;;2.53;;
55465;SDS011;41329;41.594;23.810;2023-04-27T04:07:01;2.30;;;2.20;;
55465;SDS011;41329;41.594;23.810;2023-04-27T04:09:27;5.77;;;5.37;;
55465;SDS011;41329;41.594;23.810;2023-04-27T04:11:52;5.17;;;4.57;;
55465;SDS011;41329;41.594;23.810;2023-04-27T04:14:17;6.63;;;6.23;;
55465;SDS011;41329;41.594;23.810;2023-04-27T04:16:43;8.57;;;7.93;;
55465;SDS011;41329;41.594;23.810;2023-04-27T04:19:08;7.87;;;7.43;;
55465;SDS011;41329;41.594;23.810;2023-04-27T04:21:34;8.43;;;7.83;;
55465;SDS011;41329;41.594;23.810;2023-04-27T04:23:59;6.77;;;6.37;;
55465;SDS011;41329;41.594;23.810;2023-04-27T04:26:25;5.67;;;5.17;;
55465;SDS011;41329;41.594;23.810;2023-04-27T04:28:51;5.33;;;5.03;;
55465;SDS011;41329;41.594;23.810;2023-04-27T04:31:16;4.77;;;4.40;;
55465;SDS011;41329;41.594;23.810;2023-04-27T04:33:42;3.80;;;3.60;;
55465;SDS011;41329;41.594;23.810;2023-04-27T04:36:07;4.20;;;3.80;;
55465;SDS011;41329;41.594;23.810;2023-04-27T04:38:34;6.17;;;3.37;;
55465;SDS011;41329;41.594;23.810;2023-04-27T04:41:00;3.67;;;3.37;;
55465;SDS011;41329;41.594;23.810;2023-04-27T04:43:26;5.83;;;5.17;;
55465;SDS011;41329;41.594;23.810;2023-04-27T04:45:52;12.13;;;11.23;;
55465;SDS011;41329;41.594;23.810;2023-04-27T04:48:17;12.07;;;11.17;;
55465;SDS011;41329;41.594;23.810;2023-04-27T04:50:44;16.20;;;14.93;;
55465;SDS011;41329;41.594;23.810;2023-04-27T04:53:09;15.67;;;13.97;;
55465;SDS011;41329;41.594;23.810;2023-04-27T04:55:35;15.80;;;14.40;;
55465;SDS011;41329;41.594;23.810;2023-04-27T04:58:00;14.27;;;12.63;;
55465;SDS011;41329;41.594;23.810;2023-04-27T05:00:26;12.43;;;11.33;;
55465;SDS011;41329;41.594;23.810;2023-04-27T05:02:51;13.67;;;12.57;;
55465;SDS011;41329;41.594;23.810;2023-04-27T05:05:17;15.33;;;14.10;;
55465;SDS011;41329;41.594;23.810;2023-04-27T05:07:42;12.93;;;11.93;;
55465;SDS011;41329;41.594;23.810;2023-04-27T05:10:08;11.20;;;10.40;;
55465;SDS011;41329;41.594;23.810;2023-04-27T05:12:33;11.13;;;10.33;;
55465;SDS011;41329;41.594;23.810;2023-04-27T05:14:59;10.50;;;9.57;;
55465;SDS011;41329;41.594;23.810;2023-04-27T05:17:25;9.90;;;9.20;;
55465;SDS011;41329;41.594;23.810;2023-04-27T05:19:50;8.13;;;7.53;;
55465;SDS011;41329;41.594;23.810;2023-04-27T05:22:16;6.60;;;6.20;;
55465;SDS011;41329;41.594;23.810;2023-04-27T05:24:41;7.50;;;6.80;;
55465;SDS011;41329;41.594;23.810;2023-04-27T05:27:07;9.13;;;8.23;;
55465;SDS011;41329;41.594;23.810;2023-04-27T05:29:32;6.00;;;5.60;;
55465;SDS011;41329;41.594;23.810;2023-04-27T05:31:57;5.57;;;5.20;;
55465;SDS011;41329;41.594;23.810;2023-04-27T05:34:23;3.77;;;3.57;;
55465;SDS011;41329;41.594;23.810;2023-04-27T05:36:48;4.23;;;4.03;;
55465;SDS011;41329;41.594;23.810;2023-04-27T05:39:14;5.20;;;4.60;;
55465;SDS011;41329;41.594;23.810;2023-04-27T05:41:39;4.87;;;4.40;;
55465;SDS011;41329;41.594;23.810;2023-04-27T05:44:05;5.23;;;4.83;;
55465;SDS011;41329;41.594;23.810;2023-04-27T05:46:31;5.00;;;4.60;;
55465;SDS011;41329;41.594;23.810;2023-04-27T05:48:57;4.93;;;4.60;;
55465;SDS011;41329;41.594;23.810;2023-04-27T05:51:23;4.47;;;4.27;;
55465;SDS011;41329;41.594;23.810;2023-04-27T05:53:48;5.43;;;5.13;;
55465;SDS011;41329;41.594;23.810;2023-04-27T05:56:14;16.57;;;5.33;;
55465;SDS011;41329;41.594;23.810;2023-04-27T05:58:39;6.43;;;6.10;;
55465;SDS011;41329;41.594;23.810;2023-04-27T06:01:06;6.50;;;6.07;;
55465;SDS011;41329;41.594;23.810;2023-04-27T06:03:31;6.23;;;5.57;;
55465;SDS011;41329;41.594;23.810;2023-04-27T06:05:58;6.43;;;6.03;;
55465;SDS011;41329;41.594;23.810;2023-04-27T06:08:24;6.07;;;5.60;;
55465;SDS011;41329;41.594;23.810;2023-04-27T06:10:51;6.37;;;5.87;;
55465;SDS011;41329;41.594;23.810;2023-04-27T06:13:18;5.60;;;5.10;;
55465;SDS011;41329;41.594;23.810;2023-04-27T06:15:44;7.23;;;6.53;;
55465;SDS011;41329;41.594;23.810;2023-04-27T06:18:10;6.87;;;6.47;;
55465;SDS011;41329;41.594;23.810;2023-04-27T06:20:36;6.13;;;5.73;;
55465;SDS011;41329;41.594;23.810;2023-04-27T06:23:02;6.60;;;6.00;;
55465;SDS011;41329;41.594;23.810;2023-04-27T06:25:27;10.13;;;8.57;;
55465;SDS011;41329;41.594;23.810;2023-04-27T06:27:53;6.87;;;6.47;;
55465;SDS011;41329;41.594;23.810;2023-04-27T06:30:19;6.07;;;5.67;;
55465;SDS011;41329;41.594;23.810;2023-04-27T06:32:45;6.50;;;5.90;;
55465;SDS011;41329;41.594;23.810;2023-04-27T06:35:10;6.53;;;6.13;;
55465;SDS011;41329;41.594;23.810;2023-04-27T06:37:36;8.70;;;5.87;;
55465;SDS011;41329;41.594;23.810;2023-04-27T07:50:20;3.77;;;2.83;;
55465;SDS011;41329;41.594;23.810;2023-04-27T07:52:48;4.80;;;2.87;;
55465;SDS011;41329;41.594;23.810;2023-04-27T07:55:14;5.33;;;2.40;;
55465;SDS011;41329;41.594;23.810;2023-04-27T07:57:39;4.07;;;2.50;;
55465;SDS011;41329;41.594;23.810;2023-04-27T08:00:05;3.57;;;2.87;;
55465;SDS011;41329;41.594;23.810;2023-04-27T08:02:33;2.50;;;2.30;;
55465;SDS011;41329;41.594;23.810;2023-04-27T08:04:58;5.57;;;3.00;;
55465;SDS011;41329;41.594;23.810;2023-04-27T08:07:24;3.03;;;2.77;;
55465;SDS011;41329;41.594;23.810;2023-04-27T08:09:49;2.50;;;2.30;;
55465;SDS011;41329;41.594;23.810;2023-04-27T08:12:16;3.00;;;2.63;;
55465;SDS011;41329;41.594;23.810;2023-04-27T08:14:42;5.00;;;2.67;;
55465;SDS011;41329;41.594;23.810;2023-04-27T08:17:07;3.50;;;2.60;;
55465;SDS011;41329;41.594;23.810;2023-04-27T08:19:32;2.37;;;2.17;;
55465;SDS011;41329;41.594;23.810;2023-04-27T08:21:58;2.10;;;1.90;;
55465;SDS011;41329;41.594;23.810;2023-04-27T08:24:24;1.70;;;1.60;;
55465;SDS011;41329;41.594;23.810;2023-04-27T08:26:49;1.90;;;1.80;;
55465;SDS011;41329;41.594;23.810;2023-04-27T08:29:15;3.20;;;2.50;;
55465;SDS011;41329;41.594;23.810;2023-04-27T08:31:40;2.50;;;2.17;;
55465;SDS011;41329;41.594;23.810;2023-04-27T08:34:06;2.87;;;2.03;;
55465;SDS011;41329;41.594;23.810;2023-04-27T08:36:31;3.10;;;2.37;;
55465;SDS011;41329;41.594;23.810;2023-04-27T08:38:56;2.80;;;2.53;;
55465;SDS011;41329;41.594;23.810;2023-04-27T08:41:22;3.23;;;2.80;;
55465;SDS011;41329;41.594;23.810;2023-04-27T08:43:51;2.27;;;2.00;;
55465;SDS011;41329;41.594;23.810;2023-04-27T08:46:18;2.40;;;2.30;;
55465;SDS011;41329;41.594;23.810;2023-04-27T08:48:51;2.63;;;1.90;;
55465;SDS011;41329;41.594;23.810;2023-04-27T08:51:17;1.60;;;1.50;;
55465;SDS011;41329;41.594;23.810;2023-04-27T08:53:54;3.70;;;3.40;;
55465;SDS011;41329;41.594;23.810;2023-04-27T08:56:21;4.15;;;2.00;;
55465;SDS011;41329;41.594;23.810;2023-04-27T08:58:49;2.78;;;1.98;;
55465;SDS011;41329;41.594;23.810;2023-04-27T09:01:15;2.55;;;1.73;;
55465;SDS011;41329;41.594;23.810;2023-04-27T09:03:41;2.20;;;2.05;;
55465;SDS011;41329;41.594;23.810;2023-04-27T09:06:07;3.05;;;1.77;;
55465;SDS011;41329;41.594;23.810;2023-04-27T09:08:46;3.45;;;3.15;;
55465;SDS011;41329;41.594;23.810;2023-04-27T09:11:13;2.40;;;1.83;;
55465;SDS011;41329;41.594;23.810;2023-04-27T09:13:40;1.95;;;1.85;;
55465;SDS011;41329;41.594;23.810;2023-04-27T09:16:09;1.80;;;1.70;;
55465;SDS011;41329;41.594;23.810;2023-04-27T09:18:40;2.38;;;1.50;;
55465;SDS011;41329;41.594;23.810;2023-04-27T09:21:07;2.25;;;2.05;;
55465;SDS011;41329;41.594;23.810;2023-04-27T09:23:34;2.90;;;2.70;;
55465;SDS011;41329;41.594;23.810;2023-04-27T09:26:01;2.28;;;1.80;;
55465;SDS011;41329;41.594;23.810;2023-04-27T09:28:32;2.67;;;1.92;;
55465;SDS011;41329;41.594;23.810;2023-04-27T09:30:59;2.00;;;1.85;;
55465;SDS011;41329;41.594;23.810;2023-04-27T09:33:27;3.05;;;2.00;;
55465;SDS011;41329;41.594;23.810;2023-04-27T09:35:54;2.97;;;2.00;;
55465;SDS011;41329;41.594;23.810;2023-04-27T09:38:21;2.60;;;2.13;;
55465;SDS011;41329;41.594;23.810;2023-04-27T09:40:48;1.80;;;1.70;;
55465;SDS011;41329;41.594;23.810;2023-04-27T09:43:15;1.63;;;1.52;;
55465;SDS011;41329;41.594;23.810;2023-04-27T09:45:41;3.08;;;1.95;;
55465;SDS011;41329;41.594;23.810;2023-04-27T09:48:07;3.30;;;2.25;;
55465;SDS011;41329;41.594;23.810;2023-04-27T09:50:34;2.03;;;1.92;;
55465;SDS011;41329;41.594;23.810;2023-04-27T09:53:01;1.87;;;1.77;;
55465;SDS011;41329;41.594;23.810;2023-04-27T09:55:31;2.22;;;1.75;;
55465;SDS011;41329;41.594;23.810;2023-04-27T10:01:12;2.40;;;2.08;;
55465;SDS011;41329;41.594;23.810;2023-04-27T10:06:41;1.83;;;1.70;;
55465;SDS011;41329;41.594;23.810;2023-04-27T10:09:24;1.63;;;1.50;;
55465;SDS011;41329;41.594;23.810;2023-04-27T10:11:51;3.15;;;1.88;;
55465;SDS011;41329;41.594;23.810;2023-04-27T10:14:19;2.00;;;1.83;;
55465;SDS011;41329;41.594;23.810;2023-04-27T10:16:48;1.85;;;1.73;;
55465;SDS011;41329;41.594;23.810;2023-04-27T10:19:22;2.17;;;1.50;;
55465;SDS011;41329;41.594;23.810;2023-04-27T10:24:31;1.38;;;1.25;;
55465;SDS011;41329;41.594;23.810;2023-04-27T10:27:01;3.25;;;1.38;;
55465;SDS011;41329;41.594;23.810;2023-04-27T10:29:36;2.60;;;1.60;;
55465;SDS011;41329;41.594;23.810;2023-04-27T10:32:11;2.53;;;1.33;;
55465;SDS011;41329;41.594;23.810;2023-04-27T10:34:37;1.50;;;1.40;;
55465;SDS011;41329;41.594;23.810;2023-04-27T10:37:13;3.55;;;1.60;;
55465;SDS011;41329;41.594;23.810;2023-04-27T10:39:40;1.60;;;1.45;;
55465;SDS011;41329;41.594;23.810;2023-04-27T10:42:07;1.40;;;1.30;;
55465;SDS011;41329;41.594;23.810;2023-04-27T10:44:33;4.10;;;1.98;;
55465;SDS011;41329;41.594;23.810;2023-04-27T10:47:00;2.05;;;1.92;;
55465;SDS011;41329;41.594;23.810;2023-04-27T10:49:27;3.13;;;2.88;;
55465;SDS011;41329;41.594;23.810;2023-04-27T10:51:55;1.83;;;1.63;;
55465;SDS011;41329;41.594;23.810;2023-04-27T10:54:28;1.92;;;1.75;;
55465;SDS011;41329;41.594;23.810;2023-04-27T10:57:00;3.17;;;1.92;;
55465;SDS011;41329;41.594;23.810;2023-04-27T10:59:28;1.60;;;1.50;;
55465;SDS011;41329;41.594;23.810;2023-04-27T11:01:54;2.38;;;1.55;;
55465;SDS011;41329;41.594;23.810;2023-04-27T11:04:19;2.05;;;1.80;;
55465;SDS011;41329;41.594;23.810;2023-04-27T11:06:45;3.25;;;1.58;;
55465;SDS011;41329;41.594;23.810;2023-04-27T11:09:11;1.80;;;1.70;;
55465;SDS011;41329;41.594;23.810;2023-04-27T11:11:37;1.63;;;1.50;;
55465;SDS011;41329;41.594;23.810;2023-04-27T11:14:08;2.10;;;1.90;;
55465;SDS011;41329;41.594;23.810;2023-04-27T11:16:33;2.35;;;1.63;;
55465;SDS011;41329;41.594;23.810;2023-04-27T11:19:05;1.92;;;1.42;;
55465;SDS011;41329;41.594;23.810;2023-04-27T11:21:31;2.35;;;1.52;;
55465;SDS011;41329;41.594;23.810;2023-04-27T11:24:02;2.25;;;2.05;;
55465;SDS011;41329;41.594;23.810;2023-04-27T11:26:31;1.65;;;1.55;;
55465;SDS011;41329;41.594;23.810;2023-04-27T11:28:58;1.90;;;1.80;;
55465;SDS011;41329;41.594;23.810;2023-04-27T11:31:44;2.33;;;2.13;;
55465;SDS011;41329;41.594;23.810;2023-04-27T11:34:19;2.05;;;1.90;;
55465;SDS011;41329;41.594;23.810;2023-04-27T11:39:25;2.72;;;1.95;;
55465;SDS011;41329;41.594;23.810;2023-04-27T11:41:52;2.15;;;2.05;;
55465;SDS011;41329;41.594;23.810;2023-04-27T11:44:18;2.33;;;2.10;;
55465;SDS011;41329;41.594;23.810;2023-04-27T11:46:50;3.47;;;2.78;;
55465;SDS011;41329;41.594;23.810;2023-04-27T11:49:17;2.72;;;2.53;;
55465;SDS011;41329;41.594;23.810;2023-04-27T11:51:44;3.40;;;2.13;;
55465;SDS011;41329;41.594;23.810;2023-04-27T11:54:10;2.05;;;1.80;;
55465;SDS011;41329;41.594;23.810;2023-04-27T11:56:37;1.88;;;1.70;;
55465;SDS011;41329;41.594;23.810;2023-04-27T11:59:04;2.58;;;1.67;;
55465;SDS011;41329;41.594;23.810;2023-04-27T12:01:33;1.83;;;1.35;;
55465;SDS011;41329;41.594;23.810;2023-04-27T12:03:59;1.70;;;1.60;;
55465;SDS011;41329;41.594;23.810;2023-04-27T12:06:26;5.20;;;2.78;;
55465;SDS011;41329;41.594;23.810;2023-04-27T12:08:56;1.85;;;1.75;;
55465;SDS011;41329;41.594;23.810;2023-04-27T12:11:22;3.60;;;1.80;;
55465;SDS011;41329;41.594;23.810;2023-04-27T12:13:50;1.80;;;1.70;;
55465;SDS011;41329;41.594;23.810;2023-04-27T12:16:16;1.67;;;1.58;;
55465;SDS011;41329;41.594;23.810;2023-04-27T12:18:42;1.85;;;1.75;;
55465;SDS011;41329;41.594;23.810;2023-04-27T12:21:07;1.70;;;1.40;;
55465;SDS011;41329;41.594;23.810;2023-04-27T12:23:34;2.17;;;1.55;;
55465;SDS011;41329;41.594;23.810;2023-04-27T12:26:00;1.88;;;1.67;;
55465;SDS011;41329;41.594;23.810;2023-04-27T12:28:26;2.22;;;1.58;;
55465;SDS011;41329;41.594;23.810;2023-04-27T12:30:51;1.92;;;1.83;;
55465;SDS011;41329;41.594;23.810;2023-04-27T12:33:16;1.90;;;1.80;;
55465;SDS011;41329;41.594;23.810;2023-04-27T12:35:42;1.73;;;1.58;;
55465;SDS011;41329;41.594;23.810;2023-04-27T12:38:07;1.70;;;1.60;;
55465;SDS011;41329;41.594;23.810;2023-04-27T12:40:33;3.88;;;1.83;;
55465;SDS011;41329;41.594;23.810;2023-04-27T12:42:59;1.88;;;1.67;;
55465;SDS011;41329;41.594;23.810;2023-04-27T12:45:25;1.30;;;1.20;;
55465;SDS011;41329;41.594;23.810;2023-04-27T12:47:50;2.33;;;1.40;;
55465;SDS011;41329;41.594;23.810;2023-04-27T12:50:17;2.38;;;1.15;;
55465;SDS011;41329;41.594;23.810;2023-04-27T12:52:42;1.13;;;0.98;;
55465;SDS011;41329;41.594;23.810;2023-04-27T12:55:08;3.90;;;1.48;;
55465;SDS011;41329;41.594;23.810;2023-04-27T12:57:33;1.55;;;1.30;;
55465;SDS011;41329;41.594;23.810;2023-04-27T12:59:59;1.20;;;1.10;;
55465;SDS011;41329;41.594;23.810;2023-04-27T13:02:25;2.05;;;1.02;;
55465;SDS011;41329;41.594;23.810;2023-04-27T13:04:51;1.17;;;1.00;;
55465;SDS011;41329;41.594;23.810;2023-04-27T13:07:16;1.30;;;1.00;;
55465;SDS011;41329;41.594;23.810;2023-04-27T13:09:42;1.60;;;0.90;;
55465;SDS011;41329;41.594;23.810;2023-04-27T13:12:07;3.20;;;1.15;;
55465;SDS011;41329;41.594;23.810;2023-04-27T13:14:33;1.45;;;1.35;;
55465;SDS011;41329;41.594;23.810;2023-04-27T13:16:58;1.38;;;1.25;;
55465;SDS011;41329;41.594;23.810;2023-04-27T13:19:24;2.13;;;1.27;;
55465;SDS011;41329;41.594;23.810;2023-04-27T13:21:49;2.00;;;1.30;;
55465;SDS011;41329;41.594;23.810;2023-04-27T13:24:15;3.05;;;1.63;;
55465;SDS011;41329;41.594;23.810;2023-04-27T13:26:42;3.42;;;2.15;;
55465;SDS011;41329;41.594;23.810;2023-04-27T13:29:07;3.72;;;3.42;;
55465;SDS011;41329;41.594;23.810;2023-04-27T13:31:33;2.95;;;2.17;;
55465;SDS011;41329;41.594;23.810;2023-04-27T13:33:58;3.92;;;2.97;;
55465;SDS011;41329;41.594;23.810;2023-04-27T13:36:25;1.70;;;1.52;;
55465;SDS011;41329;41.594;23.810;2023-04-27T13:38:51;1.65;;;1.40;;
55465;SDS011;41329;41.594;23.810;2023-04-27T13:41:16;1.27;;;1.08;;
55465;SDS011;41329;41.594;23.810;2023-04-27T13:43:42;2.05;;;1.65;;
55465;SDS011;41329;41.594;23.810;2023-04-27T13:46:08;1.45;;;1.23;;
55465;SDS011;41329;41.594;23.810;2023-04-27T13:48:33;2.13;;;1.30;;
55465;SDS011;41329;41.594;23.810;2023-04-27T13:50:59;1.40;;;1.25;;
55465;SDS011;41329;41.594;23.810;2023-04-27T13:53:25;2.30;;;1.45;;
55465;SDS011;41329;41.594;23.810;2023-04-27T13:55:54;3.13;;;1.45;;
55465;SDS011;41329;41.594;23.810;2023-04-27T13:58:20;2.67;;;1.52;;
55465;SDS011;41329;41.594;23.810;2023-04-27T14:00:46;1.55;;;1.40;;
55465;SDS011;41329;41.594;23.810;2023-04-27T14:03:13;1.70;;;1.40;;
55465;SDS011;41329;41.594;23.810;2023-04-27T14:05:40;3.90;;;1.43;;
55465;SDS011;41329;41.594;23.810;2023-04-27T14:08:06;1.23;;;1.20;;
55465;SDS011;41329;41.594;23.810;2023-04-27T14:10:32;2.40;;;1.57;;
55465;SDS011;41329;41.594;23.810;2023-04-27T14:12:57;2.17;;;1.90;;
55465;SDS011;41329;41.594;23.810;2023-04-27T14:15:23;1.80;;;1.70;;
55465;SDS011;41329;41.594;23.810;2023-04-27T14:17:48;2.23;;;1.40;;
55465;SDS011;41329;41.594;23.810;2023-04-27T14:20:14;1.77;;;1.67;;
55465;SDS011;41329;41.594;23.810;2023-04-27T14:22:39;1.67;;;1.57;;
55465;SDS011;41329;41.594;23.810;2023-04-27T14:25:05;1.40;;;1.30;;
55465;SDS011;41329;41.594;23.810;2023-04-27T14:27:31;3.10;;;1.23;;
55465;SDS011;41329;41.594;23.810;2023-04-27T14:29:56;1.43;;;1.37;;
55465;SDS011;41329;41.594;23.810;2023-04-27T14:32:22;4.60;;;1.83;;
55465;SDS011;41329;41.594;23.810;2023-04-27T14:34:47;3.00;;;1.80;;
55465;SDS011;41329;41.594;23.810;2023-04-27T14:37:13;3.17;;;1.53;;
55465;SDS011;41329;41.594;23.810;2023-04-27T14:39:38;1.70;;;1.60;;
55465;SDS011;41329;41.594;23.810;2023-04-27T14:42:03;1.55;;;1.45;;
55465;SDS011;41329;41.594;23.810;2023-04-27T14:44:29;1.80;;;1.60;;
55465;SDS011;41329;41.594;23.810;2023-04-27T14:46:55;1.80;;;1.70;;
55465;SDS011;41329;41.594;23.810;2023-04-27T14:49:22;1.87;;;1.70;;
55465;SDS011;41329;41.594;23.810;2023-04-27T14:51:47;2.40;;;2.30;;
55465;SDS011;41329;41.594;23.810;2023-04-27T14:54:13;2.88;;;1.83;;
55465;SDS011;41329;41.594;23.810;2023-04-27T14:56:38;2.13;;;1.73;;
55465;SDS011;41329;41.594;23.810;2023-04-27T14:59:04;3.05;;;2.85;;
55465;SDS011;41329;41.594;23.810;2023-04-27T15:01:30;1.60;;;1.50;;
55465;SDS011;41329;41.594;23.810;2023-04-27T15:03:55;2.65;;;2.45;;
55465;SDS011;41329;41.594;23.810;2023-04-27T15:06:21;2.40;;;2.20;;
55465;SDS011;41329;41.594;23.810;2023-04-27T15:08:48;5.28;;;4.72;;
55465;SDS011;41329;41.594;23.810;2023-04-27T15:11:13;6.70;;;6.22;;
55465;SDS011;41329;41.594;23.810;2023-04-27T15:13:39;4.47;;;3.30;;
55465;SDS011;41329;41.594;23.810;2023-04-27T15:16:04;5.40;;;4.45;;
55465;SDS011;41329;41.594;23.810;2023-04-27T15:18:31;7.30;;;6.53;;
55465;SDS011;41329;41.594;23.810;2023-04-27T15:20:57;3.10;;;2.80;;
55465;SDS011;41329;41.594;23.810;2023-04-27T15:23:24;6.43;;;5.90;;
55465;SDS011;41329;41.594;23.810;2023-04-27T15:25:52;4.88;;;4.57;;
55465;SDS011;41329;41.594;23.810;2023-04-27T15:28:19;3.00;;;2.40;;
55465;SDS011;41329;41.594;23.810;2023-04-27T15:30:45;2.13;;;2.00;;
55465;SDS011;41329;41.594;23.810;2023-04-27T15:33:11;1.77;;;1.67;;
55465;SDS011;41329;41.594;23.810;2023-04-27T15:35:39;1.77;;;1.67;;
55465;SDS011;41329;41.594;23.810;2023-04-27T15:38:05;2.03;;;1.93;;
55465;SDS011;41329;41.594;23.810;2023-04-27T15:40:35;4.53;;;4.22;;
55465;SDS011;41329;41.594;23.810;2023-04-27T15:43:01;3.37;;;3.17;;
55465;SDS011;41329;41.594;23.810;2023-04-27T15:45:27;3.60;;;3.40;;
55465;SDS011;41329;41.594;23.810;2023-04-27T15:47:53;2.60;;;2.40;;
55465;SDS011;41329;41.594;23.810;2023-04-27T15:50:18;22.67;;;20.40;;